Time;durP1;ratioP1;P1;durP2;ratioP2;P2;SDS_P1;SDS_P2;PMS_P1;PMS_P2;Temp;Humidity;BMP_temperature;BMP_pressure;BME280_temperature;BME280_humidity;BME280_pressure;Samples;Min_cycle;Max_cycle;Signal;HPM_P1;HPM_P2
2021/08/08 00:01:58;;;;;;;5.38;2.63;;;;;;;22.56;41.41;99396.41;5066400;28;20052;-74
2021/08/08 00:04:24;;;;;;;6.45;3.00;;;;;;;22.59;41.38;99397.56;5055658;28;20460;-74
2021/08/08 00:06:49;;;;;;;5.28;3.08;;;;;;;22.70;41.26;99408.91;5065020;28;20375;-74
2021/08/08 00:09:15;;;;;;;8.32;3.53;;;;;;;22.62;41.51;99399.59;5069415;28;20391;-71
2021/08/08 00:11:42;;;;;;;4.30;3.25;;;;;;;22.61;42.00;99400.03;5070059;28;20058;-72
2021/08/08 00:14:07;;;;;;;4.65;2.55;;;;;;;22.70;41.54;99400.34;5070075;28;20028;-73
2021/08/08 00:16:34;;;;;;;5.57;2.85;;;;;;;22.80;41.49;99401.50;5065229;28;20043;-73
2021/08/08 00:19:02;;;;;;;4.63;2.97;;;;;;;22.93;40.81;99398.94;5068661;28;20040;-74
2021/08/08 00:21:27;;;;;;;6.25;3.05;;;;;;;22.90;40.90;99402.59;5068791;28;20025;-71
2021/08/08 00:23:53;;;;;;;5.78;2.70;;;;;;;22.77;40.96;99403.13;5066048;28;20040;-74
2021/08/08 00:26:18;;;;;;;4.78;3.40;;;;;;;22.60;41.65;99404.91;5068476;28;20029;-72
2021/08/08 00:28:45;;;;;;;12.65;3.53;;;;;;;22.85;41.39;99410.41;5070357;28;20040;-74
2021/08/08 00:31:11;;;;;;;5.93;3.20;;;;;;;22.56;41.62;99404.13;5069931;28;20026;-71
2021/08/08 00:33:37;;;;;;;6.82;3.97;;;;;;;22.36;41.87;99410.34;5064043;28;20414;-72
2021/08/08 00:36:02;;;;;;;5.13;2.70;;;;;;;22.48;41.39;99408.22;5064614;28;20414;-73
2021/08/08 00:38:28;;;;;;;5.70;3.00;;;;;;;22.19;42.06;99412.06;5070146;28;20032;-72
2021/08/08 00:40:53;;;;;;;6.40;2.85;;;;;;;22.08;42.82;99411.31;5064389;28;20572;-73
2021/08/08 00:43:19;;;;;;;5.50;2.92;;;;;;;22.02;42.93;99411.78;5056207;28;20095;-71
2021/08/08 00:45:44;;;;;;;2.63;2.33;;;;;;;21.91;43.55;99410.22;5069866;28;20032;-71
2021/08/08 00:48:10;;;;;;;4.25;2.97;;;;;;;21.80;44.52;99413.09;5068559;28;20025;-71
2021/08/08 00:50:36;;;;;;;5.63;3.55;;;;;;;21.74;44.89;99418.41;5053236;28;20074;-71
2021/08/08 00:53:01;;;;;;;3.70;2.67;;;;;;;21.66;45.02;99420.47;5052995;28;20051;-74
2021/08/08 00:55:27;;;;;;;10.05;3.05;;;;;;;21.74;44.99;99422.06;5053591;28;20021;-71
2021/08/08 00:57:52;;;;;;;22.50;4.00;;;;;;;22.01;44.48;99412.16;5070366;28;20052;-71
2021/08/08 01:00:19;;;;;;;32.72;4.45;;;;;;;22.36;43.21;99406.69;5069543;28;20407;-74
2021/08/08 01:02:53;;;;;;;18.00;3.75;;;;;;;22.17;43.65;99420.22;5072609;28;20036;-72
2021/08/08 01:05:23;;;;;;;7.65;3.30;;;;;;;22.20;43.71;99416.53;5073177;28;20028;-73
2021/08/08 01:07:56;;;;;;;3.17;2.53;;;;;;;22.30;43.59;99412.81;5073399;28;20119;-73
2021/08/08 01:10:23;;;;;;;5.93;3.00;;;;;;;22.44;42.83;99413.94;5067688;28;20032;-71
2021/08/08 01:12:50;;;;;;;5.07;3.03;;;;;;;22.33;42.61;99416.88;5071907;28;20033;-72
2021/08/08 01:15:15;;;;;;;6.90;2.85;;;;;;;22.33;42.67;99414.03;5073001;28;20055;-72
2021/08/08 01:17:44;;;;;;;2.72;2.50;;;;;;;22.25;42.81;99424.66;5063318;28;20032;-72
2021/08/08 01:20:12;;;;;;;7.30;3.00;;;;;;;22.20;42.69;99413.69;5066679;28;20028;-72
2021/08/08 01:22:43;;;;;;;5.57;3.05;;;;;;;22.02;42.94;99420.31;5071562;28;20051;-71
2021/08/08 01:25:10;;;;;;;3.13;2.72;;;;;;;22.18;42.56;99421.03;5071481;28;20043;-73
2021/08/08 01:27:37;;;;;;;5.07;2.50;;;;;;;22.09;42.79;99419.47;5069380;28;20025;-71
2021/08/08 01:30:03;;;;;;;4.13;2.60;;;;;;;21.98;43.07;99413.84;5071878;28;20033;-73
2021/08/08 01:32:33;;;;;;;4.22;2.33;;;;;;;21.89;43.15;99413.47;5071568;28;20487;-71
2021/08/08 01:34:59;;;;;;;4.20;2.73;;;;;;;22.01;42.68;99415.84;5072811;28;20028;-71
2021/08/08 01:37:24;;;;;;;6.53;2.60;;;;;;;21.89;42.70;99413.47;5067667;28;20028;-71
2021/08/08 01:40:15;;;;;;;4.57;2.58;;;;;;;21.96;42.73;99410.59;5072700;28;20081;-73
2021/08/08 01:42:43;;;;;;;6.20;2.50;;;;;;;22.03;42.29;99418.28;5051289;28;20043;-74
2021/08/08 01:45:12;;;;;;;4.97;2.38;;;;;;;22.09;42.42;99413.75;5072618;28;20448;-71
2021/08/08 01:47:41;;;;;;;6.20;2.88;;;;;;;21.91;42.59;99421.59;5061422;28;20478;-71
2021/08/08 01:50:07;;;;;;;5.25;2.70;;;;;;;21.82;42.47;99413.50;5072769;28;20028;-74
2021/08/08 01:52:34;;;;;;;3.78;2.60;;;;;;;21.67;42.72;99410.72;5072013;28;20038;-73
2021/08/08 01:55:01;;;;;;;2.38;2.15;;;;;;;21.54;43.17;99416.03;5067046;28;20866;-73
2021/08/08 01:57:27;;;;;;;3.53;2.58;;;;;;;21.43;43.50;99418.09;5072195;28;20387;-73
2021/08/08 01:59:52;;;;;;;3.33;2.25;;;;;;;21.53;42.93;99411.53;5072101;28;20073;-71
2021/08/08 02:02:18;;;;;;;4.80;2.60;;;;;;;21.27;43.69;99424.22;5072536;28;20082;-73
2021/08/08 02:04:45;;;;;;;6.63;2.92;;;;;;;21.26;43.59;99419.75;5065336;28;20510;-71
2021/08/08 02:07:14;;;;;;;5.95;2.47;;;;;;;21.18;43.93;99418.97;5072283;28;20035;-72
2021/08/08 02:09:40;;;;;;;2.55;2.35;;;;;;;21.14;43.99;99415.31;5071461;28;20490;-72
2021/08/08 02:12:06;;;;;;;5.03;2.65;;;;;;;21.28;43.76;99414.47;5072105;28;20036;-72
2021/08/08 02:14:31;;;;;;;5.20;2.95;;;;;;;21.08;43.85;99417.75;5058326;28;20033;-71
2021/08/08 02:16:57;;;;;;;5.78;3.00;;;;;;;20.93;44.19;99416.94;5070479;28;20037;-71
2021/08/08 02:19:23;;;;;;;7.88;5.28;;;;;;;20.76;44.89;99430.75;5071961;28;20028;-72
2021/08/08 02:21:48;;;;;;;7.65;6.85;;;;;;;20.92;44.46;99431.59;5069516;28;20028;-73
2021/08/08 02:24:14;;;;;;;5.78;4.32;;;;;;;20.77;44.90;99434.41;5063345;28;20029;-73
2021/08/08 02:26:39;;;;;;;11.30;3.95;;;;;;;20.69;45.34;99435.63;5071044;28;20024;-73
2021/08/08 02:29:05;;;;;;;4.97;3.92;;;;;;;20.89;44.75;99428.34;5069611;28;20082;-71
2021/08/08 02:31:38;;;;;;;5.88;3.00;;;;;;;20.74;45.22;99433.19;5067665;28;20066;-71
2021/08/08 02:34:05;;;;;;;3.10;2.80;;;;;;;20.85;44.84;99429.56;5070416;28;20029;-71
2021/08/08 02:36:31;;;;;;;11.57;3.55;;;;;;;21.03;44.61;99432.38;5069764;28;20070;-73
2021/08/08 02:38:56;;;;;;;13.98;3.85;;;;;;;21.06;44.42;99430.75;5069114;28;20028;-73
2021/08/08 02:41:22;;;;;;;32.72;3.60;;;;;;;20.94;44.83;99437.66;5068990;28;20029;-71
2021/08/08 02:43:47;;;;;;;11.40;3.03;;;;;;;20.94;44.84;99441.34;5070008;28;20512;-72
2021/08/08 02:46:13;;;;;;;6.80;2.65;;;;;;;20.72;45.36;99444.16;5070555;28;20029;-73
2021/08/08 02:48:38;;;;;;;2.47;2.28;;;;;;;20.82;45.43;99451.06;5070315;28;20056;-72
2021/08/08 02:51:04;;;;;;;8.45;2.60;;;;;;;20.79;45.66;99448.19;5066504;28;20020;-72
2021/08/08 02:53:29;;;;;;;9.88;2.53;;;;;;;20.82;45.70;99450.28;5068450;28;20072;-73
2021/08/08 02:55:55;;;;;;;7.90;3.22;;;;;;;20.85;45.68;99461.63;5069396;28;20491;-72
2021/08/08 02:58:20;;;;;;;8.23;2.88;;;;;;;20.72;46.20;99455.50;5068314;28;20032;-73
2021/08/08 03:00:46;;;;;;;10.60;3.13;;;;;;;20.68;46.44;99462.41;5062869;28;20036;-72
2021/08/08 03:03:11;;;;;;;7.10;2.88;;;;;;;20.86;45.89;99463.25;5069333;28;20383;-71
2021/08/08 03:05:38;;;;;;;5.28;2.60;;;;;;;20.75;46.05;99463.22;5069649;28;20040;-71
2021/08/08 03:08:04;;;;;;;7.95;2.80;;;;;;;20.71;46.00;99473.78;5066976;28;20036;-73
2021/08/08 03:10:29;;;;;;;4.22;2.90;;;;;;;20.62;46.14;99471.31;5068630;28;20028;-72
2021/08/08 03:12:55;;;;;;;12.50;3.67;;;;;;;20.56;46.33;99477.81;5069132;28;20043;-71
2021/08/08 03:15:20;;;;;;;13.38;2.53;;;;;;;20.59;46.23;99471.34;5062089;28;20050;-71
2021/08/08 03:17:46;;;;;;;7.18;3.00;;;;;;;20.51;46.13;99476.16;5062539;28;20512;-71
2021/08/08 03:20:11;;;;;;;13.52;3.10;;;;;;;20.51;46.25;99475.38;5070376;28;20509;-73
2021/08/08 03:22:37;;;;;;;28.23;6.28;;;;;;;20.58;45.89;99478.22;5069082;28;20036;-73
2021/08/08 03:25:03;;;;;;;17.23;3.50;;;;;;;20.48;45.83;99476.97;5069191;28;20032;-71
2021/08/08 03:27:28;;;;;;;6.13;2.88;;;;;;;20.43;46.07;99472.50;5064692;28;20028;-72
2021/08/08 03:29:54;;;;;;;4.95;2.97;;;;;;;20.29;46.46;99478.97;5070695;28;20032;-73
2021/08/08 03:32:19;;;;;;;8.32;3.45;;;;;;;20.38;46.21;99480.59;5069762;28;20555;-73
2021/08/08 03:34:44;;;;;;;9.13;3.90;;;;;;;20.42;46.08;99478.59;5067225;28;20431;-73
2021/08/08 03:37:10;;;;;;;6.38;2.80;;;;;;;20.33;46.15;99479.78;5060848;28;20111;-72
2021/08/08 03:39:36;;;;;;;6.47;2.80;;;;;;;20.48;46.00;99479.81;5068483;28;20036;-71
2021/08/08 03:42:01;;;;;;;14.80;4.68;;;;;;;20.32;46.47;99486.69;5069153;28;20056;-72
2021/08/08 03:44:27;;;;;;;8.48;3.72;;;;;;;20.25;46.82;99486.66;5065433;28;20468;-72
2021/08/08 03:46:52;;;;;;;6.30;3.00;;;;;;;20.19;46.81;99488.28;5062882;28;20274;-73
2021/08/08 03:49:18;;;;;;;8.32;2.85;;;;;;;20.25;46.88;99486.66;5069676;28;20074;-71
2021/08/08 03:51:44;;;;;;;10.55;3.45;;;;;;;20.11;47.16;99480.94;5068683;28;20387;-72
2021/08/08 03:54:09;;;;;;;6.38;2.97;;;;;;;20.02;47.42;99484.16;5063589;28;20055;-73
2021/08/08 03:56:35;;;;;;;5.75;3.13;;;;;;;20.24;46.68;99485.03;5070528;28;20422;-71
2021/08/08 03:59:01;;;;;;;8.98;4.38;;;;;;;19.94;47.49;99485.34;5068838;28;20036;-71
2021/08/08 04:01:26;;;;;;;7.45;3.13;;;;;;;19.93;47.69;99484.53;5068619;28;20033;-71
2021/08/08 04:03:51;;;;;;;5.07;2.67;;;;;;;20.01;47.53;99489.00;5063577;28;20041;-71
2021/08/08 04:06:17;;;;;;;25.55;4.95;;;;;;;19.99;47.65;99494.28;5068329;28;20037;-71
2021/08/08 04:08:42;;;;;;;11.85;3.70;;;;;;;19.92;47.81;99489.38;5070075;28;20024;-73
2021/08/08 04:11:12;;;;;;;5.82;3.17;;;;;;;20.02;47.54;99496.31;5067726;28;20032;-72
2021/08/08 04:13:38;;;;;;;10.88;3.65;;;;;;;19.97;47.99;99487.38;5064488;28;20036;-71
2021/08/08 04:16:03;;;;;;;9.85;3.45;;;;;;;19.97;48.11;99501.56;5081257;23;20053;-71
2021/08/08 04:18:29;;;;;;;19.23;4.50;;;;;;;19.97;48.13;99499.53;5048215;28;20021;-71
2021/08/08 04:20:54;;;;;;;5.93;3.30;;;;;;;20.04;47.79;99505.25;5047076;28;20500;-71
2021/08/08 04:23:20;;;;;;;23.25;3.35;;;;;;;19.92;48.00;99499.91;5046799;28;20036;-73
2021/08/08 04:25:45;;;;;;;13.20;2.92;;;;;;;20.22;47.94;99503.72;5047236;28;20033;-74
2021/08/08 04:28:11;;;;;;;15.52;3.50;;;;;;;20.25;47.73;99498.00;5035170;28;20053;-77
2021/08/08 04:30:37;;;;;;;14.95;3.75;;;;;;;20.37;47.82;99504.53;5044315;28;20021;-78
2021/08/08 04:33:03;;;;;;;26.05;3.25;;;;;;;20.69;47.21;99512.34;5048705;28;20083;-74
2021/08/08 04:35:29;;;;;;;12.27;3.15;;;;;;;20.66;47.53;99511.09;5052767;28;20036;-77
2021/08/08 04:37:55;;;;;;;14.52;3.33;;;;;;;20.61;47.37;99518.00;5052437;28;20596;-76
2021/08/08 04:40:21;;;;;;;8.38;3.22;;;;;;;20.61;47.39;99520.84;5053127;28;20030;-76
2021/08/08 04:42:47;;;;;;;4.95;3.00;;;;;;;20.50;47.77;99522.84;5049832;28;20120;-76
2021/08/08 04:45:12;;;;;;;9.18;3.53;;;;;;;20.68;47.36;99531.41;5052577;28;20044;-76
2021/08/08 04:47:38;;;;;;;5.95;3.20;;;;;;;20.85;47.23;99538.38;5052117;28;20025;-78
2021/08/08 04:50:06;;;;;;;12.90;3.50;;;;;;;20.94;47.38;99542.84;5045296;28;20124;-75
2021/08/08 04:52:38;;;;;;;22.08;3.80;;;;;;;21.15;46.57;99537.19;5044763;28;20036;-77
2021/08/08 04:55:05;;;;;;;8.30;3.95;;;;;;;21.17;46.93;99551.81;5044984;28;20106;-73
2021/08/08 04:57:30;;;;;;;6.97;3.42;;;;;;;21.32;46.35;99554.63;5050081;28;20053;-76
2021/08/08 04:59:56;;;;;;;12.48;3.92;;;;;;;21.18;46.38;99552.63;5050771;28;20522;-77
2021/08/08 05:02:21;;;;;;;5.07;3.80;;;;;;;21.01;46.95;99555.03;5051626;28;20573;-75
2021/08/08 05:04:47;;;;;;;5.90;3.85;;;;;;;21.18;46.60;99552.63;5040222;28;20033;-77
2021/08/08 05:07:12;;;;;;;5.88;4.00;;;;;;;21.25;46.43;99551.81;5189049;22;20061;-71
2021/08/08 05:09:38;;;;;;;8.10;5.63;;;;;;;21.37;45.81;99553.41;5047731;28;20033;-71
2021/08/08 05:12:03;;;;;;;7.05;5.68;;;;;;;21.31;46.25;99551.00;5036305;28;20525;-71
2021/08/08 05:14:29;;;;;;;8.10;4.63;;;;;;;21.34;46.12;99552.19;5049065;28;20025;-71
2021/08/08 05:16:55;;;;;;;9.02;5.00;;;;;;;21.43;46.31;99558.28;5042655;28;20041;-71
2021/08/08 05:19:21;;;;;;;24.40;4.75;;;;;;;21.57;45.80;99556.66;5047440;28;20025;-70
2021/08/08 05:21:46;;;;;;;5.63;3.90;;;;;;;21.77;44.67;99559.88;5045156;28;20034;-72
2021/08/08 05:24:12;;;;;;;7.97;3.05;;;;;;;21.88;44.47;99562.72;5021609;28;20025;-72
2021/08/08 05:26:37;;;;;;;5.40;3.05;;;;;;;21.95;44.19;99565.53;5037741;28;20037;-72
2021/08/08 05:29:03;;;;;;;3.60;2.72;;;;;;;22.08;44.12;99563.06;5026595;28;20164;-73
2021/08/08 05:31:28;;;;;;;5.63;2.90;;;;;;;21.99;44.20;99554.16;5038283;28;20437;-71
2021/08/08 05:33:54;;;;;;;3.55;2.53;;;;;;;22.03;44.26;99554.97;5043230;28;20021;-70
2021/08/08 05:36:19;;;;;;;3.85;2.67;;;;;;;22.06;44.26;99547.63;5047158;28;20044;-71
2021/08/08 05:38:45;;;;;;;4.05;3.15;;;;;;;22.15;43.73;99554.53;5040904;28;20109;-71
2021/08/08 05:41:12;;;;;;;3.40;2.20;;;;;;;22.29;42.76;99547.94;5034291;28;20464;-70
2021/08/08 05:43:38;;;;;;;3.88;2.67;;;;;;;22.31;43.16;99556.06;5021199;28;20075;-71
2021/08/08 05:46:03;;;;;;;8.32;3.90;;;;;;;22.34;43.08;99563.00;5022611;28;20115;-70
2021/08/08 05:48:29;;;;;;;13.88;3.15;;;;;;;22.34;42.99;99557.28;5035870;28;20032;-71
2021/08/08 05:50:54;;;;;;;8.20;3.03;;;;;;;22.50;42.94;99554.78;5043550;28;20065;-70
2021/08/08 05:53:20;;;;;;;8.30;4.00;;;;;;;22.62;43.03;99544.94;5046638;28;20094;-71
2021/08/08 05:55:48;;;;;;;6.03;3.30;;;;;;;22.58;42.67;99550.69;5040018;28;20505;-70
2021/08/08 05:58:14;;;;;;;4.95;3.22;;;;;;;22.75;41.87;99556.69;5038905;28;20041;-71
2021/08/08 06:00:41;;;;;;;6.53;2.83;;;;;;;22.82;41.64;99553.78;5028566;28;20037;-71
2021/08/08 06:03:10;;;;;;;11.38;3.40;;;;;;;22.93;41.80;99550.06;5032624;28;20449;-71
2021/08/08 06:05:37;;;;;;;8.25;2.75;;;;;;;22.99;41.32;99559.78;5046074;28;20029;-72
2021/08/08 06:08:03;;;;;;;3.28;2.95;;;;;;;23.00;41.43;99556.53;5042687;28;20048;-70
2021/08/08 06:10:28;;;;;;;3.08;2.78;;;;;;;23.20;40.53;99549.44;5020247;28;20055;-70
2021/08/08 06:12:54;;;;;;;5.85;3.13;;;;;;;23.23;41.25;99543.72;5044099;28;20021;-73
2021/08/08 06:15:19;;;;;;;4.20;2.80;;;;;;;23.46;40.47;99547.22;5033269;28;20044;-71
2021/08/08 06:17:44;;;;;;;6.47;3.40;;;;;;;23.57;40.48;99542.22;5046174;28;20022;-73
2021/08/08 06:20:10;;;;;;;9.30;3.70;;;;;;;23.70;40.69;99542.47;5025619;28;20048;-73
2021/08/08 06:22:35;;;;;;;14.30;2.63;;;;;;;23.83;39.27;99542.75;5016818;28;20057;-73
2021/08/08 06:25:01;;;;;;;7.50;2.67;;;;;;;23.94;39.03;99536.91;5023413;28;20418;-71
2021/08/08 06:27:26;;;;;;;9.30;2.90;;;;;;;24.09;38.77;99543.31;5037729;28;20025;-70
2021/08/08 06:29:52;;;;;;;17.63;2.38;;;;;;;24.22;37.97;99538.66;5044943;28;20033;-70
2021/08/08 06:32:17;;;;;;;4.60;2.22;;;;;;;24.31;37.18;99537.34;5045000;28;20055;-70
2021/08/08 06:34:43;;;;;;;21.08;3.20;;;;;;;24.52;37.77;99539.91;5037637;28;20020;-72
2021/08/08 06:37:09;;;;;;;4.65;3.15;;;;;;;24.60;37.08;99534.06;5023017;28;20406;-71
2021/08/08 06:39:35;;;;;;;4.10;2.85;;;;;;;24.67;36.96;99540.50;5045824;28;20521;-70
2021/08/08 06:42:00;;;;;;;8.02;3.58;;;;;;;24.77;36.79;99535.91;5040749;28;20068;-70
2021/08/08 06:44:28;;;;;;;13.65;3.15;;;;;;;24.91;36.91;99529.13;5037493;28;20056;-71
2021/08/08 06:46:54;;;;;;;6.10;2.50;;;;;;;24.99;36.43;99529.03;5044409;28;20466;-70
2021/08/08 06:49:19;;;;;;;3.25;2.20;;;;;;;25.13;37.01;99530.88;5027033;28;20025;-72
2021/08/08 06:51:45;;;;;;;3.53;3.08;;;;;;;25.20;37.21;99530.72;5019759;28;20115;-71
2021/08/08 06:54:12;;;;;;;9.82;2.67;;;;;;;25.44;36.14;99522.16;5040313;28;20025;-70
2021/08/08 06:56:38;;;;;;;8.43;2.40;;;;;;;25.49;36.56;99524.56;5030460;28;20025;-70
2021/08/08 06:59:03;;;;;;;5.72;2.30;;;;;;;25.61;36.38;99523.91;5051467;28;20507;-70
2021/08/08 07:01:29;;;;;;;8.50;2.47;;;;;;;25.70;36.49;99523.34;5037459;28;20441;-70
2021/08/08 07:03:55;;;;;;;2.03;1.83;;;;;;;25.76;35.55;99524.47;5026104;28;20060;-75
2021/08/08 07:06:20;;;;;;;4.57;2.42;;;;;;;25.88;34.82;99534.44;5031431;28;20053;-73
2021/08/08 07:08:46;;;;;;;3.85;2.30;;;;;;;25.96;36.05;99528.59;5045360;28;20525;-71
2021/08/08 07:11:11;;;;;;;2.53;2.20;;;;;;;25.97;34.99;99528.13;5042896;28;20480;-71
2021/08/08 07:13:41;;;;;;;4.10;2.20;;;;;;;26.06;35.91;99522.63;5037045;28;20512;-75
2021/08/08 07:16:08;;;;;;;5.60;2.13;;;;;;;26.15;35.21;99519.16;5037133;28;20040;-72
2021/08/08 07:18:34;;;;;;;1.90;1.80;;;;;;;26.20;35.12;99524.44;5038872;28;20068;-73
2021/08/08 07:38:53;;;;;;;3.75;2.15;;;;;;;27.29;33.36;99521.94;5149025;27;20705;-73
2021/08/08 07:41:18;;;;;;;2.67;2.30;;;;;;;27.40;33.13;99518.78;5149194;27;20039;-72
2021/08/08 07:43:47;;;;;;;3.40;2.65;;;;;;;27.38;33.05;99514.72;5148664;27;20027;-74
2021/08/08 07:46:12;;;;;;;2.63;2.30;;;;;;;27.39;32.81;99520.03;5148753;27;20456;-74
2021/08/08 07:48:38;;;;;;;11.75;2.30;;;;;;;27.53;32.29;99513.16;5148785;27;20027;-73
2021/08/08 07:51:03;;;;;;;4.68;2.30;;;;;;;27.50;32.51;99514.00;5147400;27;20015;-71
2021/08/08 07:53:29;;;;;;;3.22;2.10;;;;;;;27.58;32.90;99524.06;5148879;27;20457;-72
2021/08/08 07:55:55;;;;;;;3.25;1.90;;;;;;;27.71;32.46;99517.59;5147361;27;20110;-70
2021/08/08 07:58:22;;;;;;;8.98;1.90;;;;;;;27.72;32.96;99519.19;5147411;27;20033;-71
2021/08/08 08:00:48;;;;;;;7.45;2.03;;;;;;;27.89;33.30;99519.97;5148476;27;20030;-70
2021/08/08 08:03:13;;;;;;;2.30;2.10;;;;;;;28.19;31.67;99522.84;5148458;27;20038;-71
2021/08/08 08:05:39;;;;;;;6.43;2.10;;;;;;;28.00;32.25;99523.34;5149088;27;20467;-73
2021/08/08 08:08:06;;;;;;;2.35;2.15;;;;;;;28.16;32.16;99522.47;5148537;27;20065;-69
2021/08/08 08:10:32;;;;;;;9.57;1.95;;;;;;;28.07;32.25;99522.31;5148818;27;20143;-74
2021/08/08 08:12:58;;;;;;;3.78;1.90;;;;;;;28.17;31.69;99524.09;5147177;27;20118;-71
2021/08/08 08:15:24;;;;;;;6.03;2.30;;;;;;;28.19;32.12;99525.72;5128369;27;20092;-70
2021/08/08 08:17:51;;;;;;;12.05;2.85;;;;;;;28.28;31.76;99520.09;5177060;27;20035;-70
2021/08/08 08:20:18;;;;;;;5.55;2.20;;;;;;;28.29;31.48;99518.84;5147272;27;20030;-75
2021/08/08 08:22:44;;;;;;;10.10;2.30;;;;;;;28.26;31.83;99522.63;5138085;27;20059;-78
2021/08/08 08:25:10;;;;;;;7.57;2.05;;;;;;;28.33;32.95;99521.63;5181276;27;20053;-72
2021/08/08 08:27:35;;;;;;;4.53;2.65;;;;;;;28.54;32.82;99517.28;5148125;27;20039;-73
2021/08/08 08:30:01;;;;;;;9.13;3.15;;;;;;;28.67;31.98;99517.28;5146844;27;20023;-72
2021/08/08 08:32:26;;;;;;;8.75;2.03;;;;;;;28.65;32.27;99519.81;5148476;27;20461;-66
2021/08/08 08:34:52;;;;;;;3.70;2.40;;;;;;;28.66;32.97;99524.28;5148234;27;20042;-68
2021/08/08 08:37:19;;;;;;;5.95;2.03;;;;;;;28.70;33.07;99520.03;5147963;27;20278;-70
2021/08/08 08:39:45;;;;;;;3.88;2.17;;;;;;;28.69;32.38;99518.44;5125084;27;20031;-71
2021/08/08 08:42:11;;;;;;;5.97;2.50;;;;;;;28.85;32.18;99513.88;5131395;27;20035;-73
2021/08/08 08:44:37;;;;;;;8.18;2.22;;;;;;;28.94;31.94;99516.84;5134219;27;20053;-72
2021/08/08 08:47:04;;;;;;;2.70;2.17;;;;;;;28.95;30.90;99520.53;5118169;27;20039;-73
2021/08/08 08:49:30;;;;;;;3.85;2.50;;;;;;;29.03;30.76;99518.22;5115527;27;20023;-73
2021/08/08 08:52:02;;;;;;;6.32;2.50;;;;;;;29.11;31.57;99506.00;5119365;27;20054;-72
2021/08/08 08:54:31;;;;;;;4.80;2.30;;;;;;;29.14;31.79;99515.78;5121677;27;20481;-73
2021/08/08 08:56:59;;;;;;;7.93;2.10;;;;;;;29.10;31.72;99506.47;5118242;27;20101;-72
2021/08/08 08:59:26;;;;;;;3.55;2.20;;;;;;;29.21;32.29;99506.94;5119205;27;20059;-73
2021/08/08 09:01:51;;;;;;;7.45;2.85;;;;;;;29.37;32.03;99503.06;5116766;27;20035;-72
2021/08/08 09:04:17;;;;;;;2.97;2.25;;;;;;;29.55;30.56;99499.59;5122664;27;20019;-73
2021/08/08 09:06:44;;;;;;;5.63;2.38;;;;;;;29.51;31.30;99498.13;5117971;27;20122;-73
2021/08/08 09:09:10;;;;;;;5.40;2.78;;;;;;;29.50;31.29;99500.19;5118801;27;20496;-71
2021/08/08 09:11:42;;;;;;;6.32;2.05;;;;;;;29.63;31.03;99491.50;5115032;27;20036;-70
2021/08/08 09:14:12;;;;;;;5.43;2.20;;;;;;;29.68;31.64;99488.03;5116645;27;20027;-73
2021/08/08 09:16:39;;;;;;;4.70;2.38;;;;;;;29.74;31.16;99490.28;5118862;27;20035;-73
2021/08/08 09:19:06;;;;;;;4.57;2.38;;;;;;;29.96;30.64;99496.88;5118075;27;20499;-74
2021/08/08 09:21:34;;;;;;;4.60;2.13;;;;;;;29.89;30.02;99485.63;5121896;27;20038;-75
2021/08/08 09:24:02;;;;;;;3.88;2.13;;;;;;;30.06;30.40;99486.25;5116451;27;20104;-72
2021/08/08 09:26:35;;;;;;;8.23;2.40;;;;;;;30.22;29.12;99479.44;5122181;27;20403;-73
2021/08/08 09:29:08;;;;;;;4.35;2.20;;;;;;;30.22;28.94;99479.44;5116314;27;20464;-73
2021/08/08 09:31:46;;;;;;;5.13;1.80;;;;;;;30.10;29.05;99494.75;5122045;27;20051;-73
2021/08/08 09:34:26;;;;;;;6.43;2.05;;;;;;;30.20;29.07;99481.22;5117562;27;20055;-71
2021/08/08 09:36:53;;;;;;;3.50;2.00;;;;;;;30.43;29.40;99471.22;5126495;27;20078;-71
2021/08/08 09:39:41;;;;;;;4.65;2.22;;;;;;;30.57;28.36;99471.94;5122626;27;20020;-73
2021/08/08 09:42:13;;;;;;;3.38;2.03;;;;;;;30.71;27.36;99464.81;5131388;27;20023;-76
2021/08/08 09:45:07;;;;;;;3.30;1.85;;;;;;;30.86;28.33;99465.81;5134647;27;20030;-74
2021/08/08 09:47:37;;;;;;;16.88;2.80;;;;;;;30.74;27.48;99461.78;5131862;27;20072;-75
2021/08/08 09:50:05;;;;;;;;;;;;;;;30.67;28.25;99462.88;5133525;27;20027;-79
2021/08/08 09:52:36;;;;;;;10.32;2.25;;;;;;;30.76;28.58;99467.06;5166189;27;20311;-74
2021/08/08 09:55:16;;;;;;;2.38;2.17;;;;;;;31.02;27.43;99463.97;5133042;27;20077;-72
2021/08/08 09:57:42;;;;;;;10.55;2.40;;;;;;;31.16;27.68;99465.41;5131725;27;20560;-71
2021/08/08 10:00:09;;;;;;;6.53;2.33;;;;;;;31.31;27.01;99454.88;5132754;27;20065;-71
2021/08/08 10:02:34;;;;;;;2.75;2.08;;;;;;;31.40;26.20;99456.97;5131284;27;20042;-75
2021/08/08 10:05:00;;;;;;;5.78;2.30;;;;;;;31.38;26.90;99448.78;5131319;27;20023;-70
2021/08/08 10:07:28;;;;;;;3.53;2.30;;;;;;;31.56;26.45;99452.97;5132458;27;20023;-76
2021/08/08 10:09:57;;;;;;;4.47;2.10;;;;;;;31.50;26.90;99452.81;5118709;27;20496;-71
2021/08/08 10:12:38;;;;;;;8.83;2.43;;;;;;;31.58;26.37;99450.41;5117230;27;20034;-72
2021/08/08 10:15:04;;;;;;;4.93;2.25;;;;;;;31.67;26.48;99449.59;5120133;27;20027;-71
2021/08/08 10:17:33;;;;;;;9.50;2.35;;;;;;;31.83;27.39;99451.38;5118825;27;20039;-70
2021/08/08 10:20:00;;;;;;;13.18;2.17;;;;;;;31.93;26.48;99443.47;5120922;27;20027;-72
2021/08/08 10:22:28;;;;;;;2.40;2.15;;;;;;;32.10;25.45;99451.78;5116161;27;20043;-77
2021/08/08 10:24:56;;;;;;;2.40;1.73;;;;;;;32.11;25.85;99442.63;5121316;27;20031;-76
2021/08/08 10:27:26;;;;;;;3.92;2.00;;;;;;;32.19;26.29;99431.53;5117155;27;20036;-73
2021/08/08 10:29:54;;;;;;;3.33;2.33;;;;;;;32.38;26.07;99443.88;5122652;27;20033;-79
2021/08/08 10:32:24;;;;;;;3.00;1.90;;;;;;;32.40;26.41;99440.50;5118143;27;20035;-75
2021/08/08 10:34:50;;;;;;;2.03;1.70;;;;;;;32.53;25.52;99438.19;5120255;27;20027;-72
2021/08/08 10:37:16;;;;;;;2.17;1.98;;;;;;;32.58;25.72;99430.94;5128490;27;20042;-71
2021/08/08 10:39:48;;;;;;;1.98;1.80;;;;;;;32.70;25.13;99429.91;5128683;27;20063;-73
2021/08/08 10:42:13;;;;;;;1.88;1.65;;;;;;;32.73;25.41;99431.03;5130046;27;20023;-70
2021/08/08 10:44:47;;;;;;;4.53;2.00;;;;;;;32.82;24.12;99425.16;5129820;27;20058;-70
2021/08/08 10:47:24;;;;;;;5.30;1.67;;;;;;;32.87;24.89;99424.50;5128205;27;20038;-72
2021/08/08 10:49:50;;;;;;;3.58;2.17;;;;;;;33.10;24.26;99419.25;5130096;27;20521;-70
2021/08/08 10:52:15;;;;;;;2.38;1.95;;;;;;;33.17;23.76;99423.88;5131804;27;20023;-72
2021/08/08 10:54:46;;;;;;;5.30;1.70;;;;;;;33.24;23.15;99419.78;5130556;27;20523;-70
2021/08/08 10:57:16;;;;;;;5.20;1.80;;;;;;;33.26;23.14;99418.00;5131717;27;20042;-70
2021/08/08 10:59:45;;;;;;;;;;;;;;;33.40;23.56;99421.44;5132521;27;20504;-72
2021/08/08 11:02:16;;;;;;;3.45;1.83;;;;;;;33.49;24.08;99412.69;5131441;27;20439;-70
2021/08/08 11:04:42;;;;;;;2.25;2.05;;;;;;;33.52;23.90;99423.28;5131728;27;20035;-70
2021/08/08 11:07:08;;;;;;;2.28;1.70;;;;;;;33.56;23.50;99423.91;5131441;27;20106;-70
2021/08/08 11:09:36;;;;;;;2.30;2.00;;;;;;;33.63;23.49;99419.03;5131611;27;20076;-70
2021/08/08 11:12:03;;;;;;;5.88;1.95;;;;;;;33.77;22.86;99417.41;5131499;27;20506;-70
2021/08/08 11:14:29;;;;;;;4.10;1.88;;;;;;;33.80;21.22;99416.44;5131451;27;20035;-72
2021/08/08 11:17:04;;;;;;;2.85;1.92;;;;;;;33.92;21.15;99414.53;5130248;27;20031;-71
2021/08/08 11:19:32;;;;;;;2.75;1.20;;;;;;;34.00;21.54;99419.47;5131417;27;20156;-70
2021/08/08 11:22:11;;;;;;;3.97;1.90;;;;;;;33.80;22.26;99413.53;5131588;27;20042;-70
2021/08/08 11:24:38;;;;;;;1.40;1.30;;;;;;;33.86;22.22;99409.44;5131276;27;20594;-70
2021/08/08 11:27:06;;;;;;;2.00;1.90;;;;;;;33.98;22.78;99413.38;5130002;28;20085;-70
2021/08/08 11:29:32;;;;;;;3.15;2.53;;;;;;;33.99;22.56;99412.06;5131174;27;20035;-72
2021/08/08 11:32:01;;;;;;;1.58;1.40;;;;;;;33.99;22.29;99408.38;5129922;28;20028;-71
2021/08/08 11:34:27;;;;;;;3.10;1.90;;;;;;;34.01;22.28;99411.56;5131187;27;20110;-70
2021/08/08 11:36:56;;;;;;;2.08;1.77;;;;;;;34.08;22.67;99399.53;5129523;28;20083;-72
2021/08/08 11:39:29;;;;;;;2.08;1.88;;;;;;;33.99;23.12;99402.56;5131266;27;20051;-72
2021/08/08 11:42:04;;;;;;;4.45;1.80;;;;;;;33.88;22.14;99397.31;5130957;27;20051;-72
2021/08/08 11:44:37;;;;;;;3.88;1.88;;;;;;;33.82;22.58;99394.31;5131530;27;20559;-72
2021/08/08 11:47:03;;;;;;;5.43;1.67;;;;;;;33.76;22.76;99390.53;5129710;28;20480;-71
2021/08/08 11:49:30;;;;;;;6.13;1.70;;;;;;;33.78;23.31;99378.41;5131303;27;20038;-72